Time;durP1;ratioP1;P1;durP2;ratioP2;P2;SDS_P1;SDS_P2;PMS_P1;PMS_P2;Temp;Humidity;BMP_temperature;BMP_pressure;BME280_temperature;BME280_humidity;BME280_pressure;Samples;Min_cycle;Max_cycle;Signal;HPM_P1;HPM_P2
2021/12/22 00:01:26;;;;;;;67.32;30.02;;;;;;;-6.41;100.00;102440.03;5068055;28;20415;-85
2021/12/22 00:03:54;;;;;;;62.13;30.85;;;;;;;-6.41;100.00;102446.09;5093227;28;20511;-85
2021/12/22 00:06:23;;;;;;;63.60;30.85;;;;;;;-6.40;100.00;102452.16;5097119;28;20031;-85
2021/12/22 00:08:49;;;;;;;63.33;30.77;;;;;;;-6.52;100.00;102434.38;5090500;28;20425;-85
2021/12/22 00:11:14;;;;;;;63.25;30.02;;;;;;;-6.49;100.00;102441.41;5093168;28;20340;-85
2021/12/22 00:13:40;;;;;;;58.63;28.13;;;;;;;-6.49;100.00;102456.94;5106970;28;20282;-85
2021/12/22 00:16:06;;;;;;;69.43;31.20;;;;;;;-6.51;100.00;102451.72;5087967;28;20114;-85
2021/12/22 00:18:31;;;;;;;62.03;29.35;;;;;;;-6.45;100.00;102466.63;5091345;28;20031;-85
2021/12/22 00:20:56;;;;;;;66.65;29.65;;;;;;;-6.47;100.00;102451.03;5089810;28;20019;-85
2021/12/22 00:23:22;;;;;;;62.15;28.40;;;;;;;-6.57;100.00;102448.81;5099341;28;20023;-85
2021/12/22 00:25:47;;;;;;;64.82;28.23;;;;;;;-6.56;100.00;102459.28;5084412;28;20039;-85
2021/12/22 00:28:13;;;;;;;60.15;28.65;;;;;;;-6.62;100.00;102450.34;5108844;28;20070;-85
2021/12/22 00:30:39;;;;;;;65.93;28.05;;;;;;;-6.68;100.00;102445.78;5102835;28;20024;-85
2021/12/22 00:33:06;;;;;;;60.95;28.95;;;;;;;-6.68;100.00;102448.38;5092620;28;20067;-85
2021/12/22 00:35:39;;;;;;;67.47;29.45;;;;;;;-6.64;100.00;102458.06;5091117;28;20385;-85
2021/12/22 00:38:06;;;;;;;70.38;30.10;;;;;;;-6.61;100.00;102462.47;5088135;28;20371;-84
2021/12/22 00:40:32;;;;;;;67.57;29.70;;;;;;;-6.58;100.00;102470.38;5101227;28;20024;-85
2021/12/22 00:42:57;;;;;;;71.05;29.23;;;;;;;-6.61;100.00;102463.34;5094925;28;20030;-85
2021/12/22 00:45:24;;;;;;;66.63;31.05;;;;;;;-6.60;100.00;102466.84;5075911;28;20059;-85
2021/12/22 00:47:50;;;;;;;72.03;28.48;;;;;;;-6.59;100.00;102455.66;5101188;28;20058;-85
2021/12/22 00:50:17;;;;;;;71.65;29.10;;;;;;;-6.58;100.00;102452.25;5093996;28;20108;-85
2021/12/22 00:52:42;;;;;;;73.90;30.17;;;;;;;-6.65;100.00;102442.41;5090210;28;20020;-85
2021/12/22 00:55:08;;;;;;;63.22;27.13;;;;;;;-6.59;100.00;102459.13;5084339;28;20143;-85
2021/12/22 00:57:35;;;;;;;66.72;29.42;;;;;;;-6.58;100.00;102452.25;5092644;28;20088;-85
2021/12/22 01:00:00;;;;;;;65.10;29.85;;;;;;;-6.62;100.00;102452.94;5102823;28;20425;-85
2021/12/22 01:02:25;;;;;;;74.60;30.80;;;;;;;-6.58;100.00;102462.59;5099589;28;20031;-85
2021/12/22 01:04:51;;;;;;;68.88;29.08;;;;;;;-6.68;100.00;102450.06;5086066;28;20154;-85
2021/12/22 01:07:16;;;;;;;65.68;28.50;;;;;;;-6.73;100.00;102451.53;5087966;28;20149;-85
2021/12/22 01:09:43;;;;;;;64.82;27.35;;;;;;;-6.69;100.00;102459.50;5090438;28;20513;-85
2021/12/22 01:12:10;;;;;;;66.18;27.52;;;;;;;-6.75;100.00;102458.38;5103017;28;20487;-85
2021/12/22 01:14:37;;;;;;;69.80;28.65;;;;;;;-6.77;100.00;102454.03;5095170;28;20019;-85
2021/12/22 01:17:03;;;;;;;70.22;29.40;;;;;;;-6.75;100.00;102456.66;5098971;28;20028;-85
2021/12/22 01:19:39;;;;;;;69.07;30.15;;;;;;;-6.65;100.00;102463.13;5090685;28;20537;-85
2021/12/22 01:22:19;;;;;;;77.95;29.55;;;;;;;-6.67;100.00;102447.53;5106107;28;20051;-85
2021/12/22 01:24:48;;;;;;;68.93;27.98;;;;;;;-6.66;100.00;102449.31;5093535;28;20036;-85
2021/12/22 01:27:17;;;;;;;71.50;29.63;;;;;;;-6.60;100.00;102457.38;5074229;28;20024;-84
2021/12/22 01:29:43;;;;;;;76.63;29.73;;;;;;;-6.55;100.00;102447.22;5082098;28;20019;-85
2021/12/22 01:32:09;;;;;;;77.18;31.58;;;;;;;-6.51;100.00;102446.53;5108309;28;20058;-84
2021/12/22 01:34:35;;;;;;;78.55;31.08;;;;;;;-6.47;100.00;102442.38;5099281;28;20499;-85
2021/12/22 01:37:01;;;;;;;76.85;31.20;;;;;;;-6.41;100.00;102437.44;5105857;28;20422;-85
2021/12/22 01:39:26;;;;;;;86.88;34.38;;;;;;;-6.27;100.00;102425.97;5103031;28;20065;-85
2021/12/22 01:41:52;;;;;;;87.28;33.50;;;;;;;-6.10;100.00;102437.97;5104375;28;20032;-85
2021/12/22 01:44:33;;;;;;;92.82;34.78;;;;;;;-6.05;100.00;102425.19;5090108;28;20480;-85
2021/12/22 01:49:50;;;;;;;83.65;33.25;;;;;;;-5.93;100.00;102445.56;5106322;28;20047;-85
2021/12/22 01:52:17;;;;;;;81.50;34.22;;;;;;;-5.87;100.00;102445.78;5102242;28;20023;-84
2021/12/22 01:54:49;;;;;;;86.47;34.47;;;;;;;-5.80;100.00;102437.44;5095183;28;20030;-84
2021/12/22 01:57:17;;;;;;;89.30;33.42;;;;;;;-5.86;100.00;102422.50;5070801;28;20826;-84
2021/12/22 01:59:46;;;;;;;80.95;33.60;;;;;;;-5.81;100.00;102426.19;5089308;28;20115;-85
2021/12/22 02:02:13;;;;;;;85.47;32.25;;;;;;;-5.77;100.00;102434.94;5096580;28;20034;-85
2021/12/22 02:04:41;;;;;;;74.18;32.00;;;;;;;-5.76;100.00;102435.03;5097101;28;20048;-85
2021/12/22 02:07:06;;;;;;;80.68;33.92;;;;;;;-5.84;100.00;102415.69;5099178;28;20500;-84
2021/12/22 02:11:57;;;;;;;75.18;31.23;;;;;;;-5.79;100.00;102432.31;5108289;28;20035;-85
2021/12/22 02:14:22;;;;;;;70.35;29.45;;;;;;;-5.77;100.00;102433.28;5096295;28;20024;-85
2021/12/22 02:16:48;;;;;;;75.22;31.23;;;;;;;-5.74;100.00;102439.38;5087834;28;20030;-84
2021/12/22 02:19:14;;;;;;;73.13;30.42;;;;;;;-5.75;100.00;102433.31;5091070;28;20027;-84
2021/12/22 02:21:46;;;;;;;76.63;29.40;;;;;;;-5.71;100.00;102450.78;5091963;28;20047;-84
2021/12/22 02:24:12;;;;;;;79.22;30.23;;;;;;;-5.77;100.00;102451.44;5099265;28;20499;-84
2021/12/22 02:26:42;;;;;;;67.93;28.67;;;;;;;-5.83;100.00;102450.28;5097532;28;20176;-85
2021/12/22 02:29:19;;;;;;;59.35;27.98;;;;;;;-5.90;100.00;102445.63;5103365;28;20023;-84
2021/12/22 02:31:46;;;;;;;60.63;27.63;;;;;;;-5.98;100.00;102455.72;5099374;28;20124;-84
2021/12/22 02:34:16;;;;;;;68.82;29.23;;;;;;;-5.99;100.00;102455.66;5086886;28;20035;-84
2021/12/22 02:36:45;;;;;;;63.83;26.75;;;;;;;-6.03;100.00;102449.47;5090179;28;20148;-84
2021/12/22 02:39:12;;;;;;;61.95;26.42;;;;;;;-6.05;100.00;102452.00;5098402;28;20034;-84
2021/12/22 02:41:38;;;;;;;67.85;28.55;;;;;;;-6.08;100.00;102454.44;5073238;28;20032;-85
2021/12/22 02:44:07;;;;;;;56.95;25.52;;;;;;;-6.13;100.00;102452.50;5075930;28;20027;-84
2021/12/22 02:46:35;;;;;;;61.17;25.67;;;;;;;-6.25;100.00;102436.41;5100479;28;20116;-85
2021/12/22 02:49:02;;;;;;;61.92;25.85;;;;;;;-6.20;100.00;102442.69;5106943;28;20080;-85
2021/12/22 02:51:29;;;;;;;59.70;27.02;;;;;;;-6.19;100.00;102445.31;5088058;28;20025;-85
2021/12/22 02:54:08;;;;;;;63.08;26.38;;;;;;;-6.16;100.00;102439.41;5102267;28;20038;-86
2021/12/22 02:56:51;;;;;;;63.97;26.90;;;;;;;-6.18;100.00;102441.06;5089869;28;20354;-85
2021/12/22 02:59:41;;;;;;;65.45;26.33;;;;;;;-6.25;100.00;102439.88;5094498;28;20187;-85
2021/12/22 03:04:42;;;;;;;58.55;25.75;;;;;;;-6.40;100.00;102421.06;5096785;28;20059;-85
2021/12/22 03:07:16;;;;;;;57.20;25.75;;;;;;;-6.36;100.00;102421.28;5103635;28;20035;-85
2021/12/22 03:09:42;;;;;;;;;;;;;;;-6.30;100.00;102423.25;5097454;28;20038;-85
2021/12/22 03:12:11;;;;;;;54.72;25.42;;;;;;;-6.30;100.00;102428.44;5088821;28;19916;-84
2021/12/22 03:14:36;;;;;;;55.92;24.65;;;;;;;-6.36;100.00;102422.97;5099352;28;20567;-85
2021/12/22 03:17:02;;;;;;;57.35;25.90;;;;;;;-6.34;100.00;102434.31;5086919;28;20055;-85
2021/12/22 03:19:31;;;;;;;60.47;24.65;;;;;;;-6.35;100.00;102446.38;5091076;28;20032;-85
2021/12/22 03:22:03;;;;;;;49.92;23.95;;;;;;;-6.39;100.00;102459.16;5085343;28;20032;-84
2021/12/22 03:24:30;;;;;;;59.65;24.92;;;;;;;-6.43;100.00;102446.88;5088846;28;20081;-84
2021/12/22 03:26:59;;;;;;;59.80;24.27;;;;;;;-6.51;100.00;102459.47;5107120;28;20023;-84
2021/12/22 03:29:24;;;;;;;55.25;23.50;;;;;;;-6.53;100.00;102464.56;5088792;28;20444;-84
2021/12/22 03:31:50;;;;;;;59.80;24.13;;;;;;;-6.55;100.00;102460.16;5103940;28;20361;-86
2021/12/22 03:34:17;;;;;;;60.28;24.25;;;;;;;-6.66;100.00;102451.00;5093382;28;20050;-85
2021/12/22 03:36:43;;;;;;;48.38;24.33;;;;;;;-6.68;100.00;102466.50;5090297;28;20477;-85
2021/12/22 03:39:09;;;;;;;56.95;24.80;;;;;;;-6.73;100.00;102470.56;5097893;28;20434;-85
2021/12/22 03:41:35;;;;;;;62.97;26.65;;;;;;;-6.77;100.00;102468.66;5097168;28;20099;-84
2021/12/22 03:44:02;;;;;;;67.97;28.30;;;;;;;-6.81;100.00;102477.13;5092000;28;20135;-84
2021/12/22 03:46:27;;;;;;;52.95;24.25;;;;;;;-6.90;100.00;102462.00;5102167;28;20024;-84
2021/12/22 03:48:52;;;;;;;52.30;23.50;;;;;;;-6.91;100.00;102461.97;5107833;28;20039;-84
2021/12/22 03:51:17;;;;;;;50.92;24.60;;;;;;;-6.95;100.00;102463.50;5102622;28;20389;-84
2021/12/22 03:53:43;;;;;;;58.10;25.08;;;;;;;-6.94;100.00;102461.81;5103322;28;20408;-84
2021/12/22 03:56:08;;;;;;;50.10;24.67;;;;;;;-7.00;100.00;102457.25;5090913;28;20405;-84
2021/12/22 03:58:33;;;;;;;55.22;23.80;;;;;;;-7.01;100.00;102455.47;5106646;28;20024;-85
2021/12/22 04:00:59;;;;;;;47.22;22.25;;;;;;;-7.04;100.00;102450.16;5095995;28;20035;-84
2021/12/22 04:03:28;;;;;;;52.42;23.20;;;;;;;-7.08;100.00;102445.66;5091595;28;20483;-84
2021/12/22 04:05:54;;;;;;;50.22;22.00;;;;;;;-7.08;100.00;102456.88;5093581;28;20044;-85
2021/12/22 04:08:19;;;;;;;50.53;22.05;;;;;;;-7.13;100.00;102445.44;5091292;28;20086;-84
2021/12/22 04:10:46;;;;;;;51.67;21.13;;;;;;;-7.10;100.00;102455.06;5110260;28;20034;-84
2021/12/22 04:13:12;;;;;;;41.25;20.10;;;;;;;-7.12;100.00;102448.91;5109005;28;20107;-84
2021/12/22 04:15:38;;;;;;;54.22;22.23;;;;;;;-7.07;100.00;102456.06;5091460;28;20118;-84
2021/12/22 04:18:03;;;;;;;46.53;20.60;;;;;;;-7.01;100.00;102455.47;5104554;28;20028;-83
2021/12/22 04:20:29;;;;;;;48.55;21.90;;;;;;;-6.91;100.00;102451.59;5090116;28;20093;-84
2021/12/22 04:22:55;;;;;;;45.08;21.08;;;;;;;-6.92;100.00;102450.72;5097245;28;20028;-84
2021/12/22 04:25:21;;;;;;;51.53;22.65;;;;;;;-6.89;100.00;102450.88;5093535;28;20522;-84
2021/12/22 04:27:48;;;;;;;51.88;22.23;;;;;;;-6.95;100.00;102431.56;5094818;28;20093;-84
2021/12/22 04:30:13;;;;;;;40.47;19.33;;;;;;;-6.93;100.00;102442.91;5100733;28;20031;-84
2021/12/22 04:32:38;;;;;;;44.00;19.88;;;;;;;-6.95;100.00;102436.75;5089369;28;20370;-84
2021/12/22 04:35:04;;;;;;;42.90;20.25;;;;;;;-6.97;100.00;102433.22;5089836;28;20456;-84
2021/12/22 04:37:29;;;;;;;48.00;20.85;;;;;;;-6.89;100.00;102434.44;5102375;28;20032;-84
2021/12/22 04:39:54;;;;;;;53.75;21.90;;;;;;;-6.83;100.00;102432.13;5108963;28;20030;-84
2021/12/22 04:42:20;;;;;;;46.47;22.48;;;;;;;-6.75;100.00;102428.19;5094257;28;20036;-84
2021/12/22 04:44:46;;;;;;;50.20;22.15;;;;;;;-6.65;100.00;102437.25;5103224;28;20062;-84
2021/12/22 04:47:12;;;;;;;50.22;21.63;;;;;;;-6.68;100.00;102424.19;5090374;28;20040;-84
2021/12/22 04:49:39;;;;;;;44.20;20.17;;;;;;;-6.63;100.00;102420.97;5104405;28;20474;-83
2021/12/22 04:52:07;;;;;;;44.72;21.33;;;;;;;-6.54;100.00;102420.47;5089199;28;20040;-84
2021/12/22 04:54:42;;;;;;;42.88;21.70;;;;;;;-6.50;100.00;102424.09;5090383;28;20088;-84
2021/12/22 04:57:07;;;;;;;46.88;20.88;;;;;;;-6.57;100.00;102415.16;5089427;28;20261;-85
2021/12/22 04:59:33;;;;;;;44.10;20.67;;;;;;;-6.53;100.00;102430.91;5087599;28;20020;-85
2021/12/22 05:01:58;;;;;;;47.72;21.10;;;;;;;-6.57;100.00;102436.75;5095992;28;20500;-84
2021/12/22 05:04:23;;;;;;;43.97;20.95;;;;;;;-6.60;100.00;102431.47;5107999;28;20044;-84
2021/12/22 05:06:48;;;;;;;51.22;20.88;;;;;;;-6.68;100.00;102425.06;5088303;28;20036;-84
2021/12/22 05:09:14;;;;;;;45.50;20.55;;;;;;;-6.76;100.00;102431.59;5108567;28;20046;-84
2021/12/22 05:11:40;;;;;;;50.58;20.80;;;;;;;-6.86;100.00;102424.22;5091013;28;20376;-85
2021/12/22 05:14:08;;;;;;;43.28;20.98;;;;;;;-6.83;100.00;102421.78;5108152;28;20028;-84
2021/12/22 05:16:33;;;;;;;48.30;20.23;;;;;;;-6.82;100.00;102421.84;5108113;28;20030;-84
2021/12/22 05:19:15;;;;;;;41.20;19.23;;;;;;;-6.79;100.00;102410.75;5092628;28;20020;-84
2021/12/22 05:21:44;;;;;;;45.55;20.27;;;;;;;-6.74;100.00;102403.16;5090340;28;20506;-84
2021/12/22 05:24:10;;;;;;;47.72;19.77;;;;;;;-6.74;100.00;102393.69;5108413;28;20038;-85
2021/12/22 05:26:35;;;;;;;48.45;20.33;;;;;;;-6.77;100.00;102401.34;5106526;28;20106;-84
2021/12/22 05:29:01;;;;;;;35.35;18.50;;;;;;;-6.81;100.00;102413.28;5105831;27;20286;-84
2021/12/22 05:31:27;;;;;;;42.03;19.55;;;;;;;-6.78;100.00;102409.91;5081368;28;20426;-83
2021/12/22 05:33:53;;;;;;;35.92;18.27;;;;;;;-6.83;100.00;102414.00;5094327;28;20465;-84
2021/12/22 05:36:18;;;;;;;44.92;19.92;;;;;;;-6.81;100.00;102422.75;5105696;28;20063;-84
2021/12/22 05:38:43;;;;;;;39.15;18.50;;;;;;;-6.97;100.00;102400.44;5107237;28;20027;-84
2021/12/22 05:41:09;;;;;;;40.08;18.38;;;;;;;-6.91;100.00;102420.53;5108283;28;20020;-84
2021/12/22 05:43:34;;;;;;;38.95;19.27;;;;;;;-6.93;100.00;102404.06;5107339;28;20204;-84
2021/12/22 05:46:00;;;;;;;37.05;17.83;;;;;;;-6.96;100.00;102402.22;5099165;28;20103;-84
2021/12/22 05:48:27;;;;;;;38.30;17.73;;;;;;;-7.01;100.00;102393.34;5108138;28;20031;-83
2021/12/22 05:50:56;;;;;;;37.72;18.00;;;;;;;-7.01;100.00;102393.34;5108689;28;20035;-84
2021/12/22 05:53:22;;;;;;;37.72;17.40;;;;;;;-7.06;100.00;102390.56;5107459;28;20055;-85
2021/12/22 05:55:47;;;;;;;40.88;19.45;;;;;;;-7.08;100.00;102391.31;5107847;28;20031;-86
2021/12/22 05:58:13;;;;;;;42.35;18.35;;;;;;;-7.11;100.00;102384.28;5089603;28;20023;-85
2021/12/22 06:00:38;;;;;;;41.13;18.05;;;;;;;-7.07;100.00;102393.94;5107549;28;20031;-85
2021/12/22 06:03:04;;;;;;;36.80;18.30;;;;;;;-7.14;100.00;102381.56;5107495;28;20023;-85
2021/12/22 06:05:29;;;;;;;37.70;17.67;;;;;;;-7.05;100.00;102394.91;5087655;28;20163;-83
2021/12/22 06:07:55;;;;;;;37.90;18.15;;;;;;;-7.08;100.00;102396.47;5107308;28;20040;-85
2021/12/22 06:10:20;;;;;;;35.15;17.65;;;;;;;-7.14;100.00;102386.75;5108074;28;20092;-85
2021/12/22 06:12:45;;;;;;;37.25;18.38;;;;;;;-7.13;100.00;102383.34;5107902;28;20080;-85
2021/12/22 06:15:10;;;;;;;35.63;17.20;;;;;;;-7.15;100.00;102390.13;5105802;28;20494;-85
2021/12/22 06:17:36;;;;;;;36.05;17.77;;;;;;;-7.11;100.00;102393.75;5108040;28;20020;-85
2021/12/22 06:20:03;;;;;;;35.88;17.20;;;;;;;-7.15;100.00;102379.78;5107691;28;20496;-85
2021/12/22 06:22:30;;;;;;;33.42;16.55;;;;;;;-7.09;100.00;102395.59;5108482;28;20023;-85
2021/12/22 06:24:56;;;;;;;31.30;16.67;;;;;;;-7.10;100.00;102399.00;5087351;28;20180;-85
2021/12/22 06:27:21;;;;;;;32.05;16.27;;;;;;;-7.20;100.00;102382.97;5107610;28;20602;-86
2021/12/22 06:29:47;;;;;;;34.00;17.15;;;;;;;-7.18;100.00;102384.81;5107823;28;20050;-86
2021/12/22 06:32:12;;;;;;;31.25;16.35;;;;;;;-7.20;100.00;102385.56;5108417;28;20043;-87
2021/12/22 06:34:37;;;;;;;31.65;16.15;;;;;;;-7.17;100.00;102391.78;5100961;28;20024;-87
2021/12/22 06:37:03;;;;;;;30.35;16.45;;;;;;;-7.13;100.00;102396.25;5096244;28;20082;-86
2021/12/22 06:39:29;;;;;;;31.98;16.55;;;;;;;-7.15;100.00;102399.59;5102795;28;20473;-85
2021/12/22 06:41:54;;;;;;;30.33;16.00;;;;;;;-7.20;100.00;102394.19;5089035;28;20028;-86
2021/12/22 06:44:19;;;;;;;34.45;16.05;;;;;;;-7.25;100.00;102387.06;5085739;28;20031;-85
2021/12/22 06:46:45;;;;;;;33.65;15.68;;;;;;;-7.27;100.00;102389.59;5106430;28;20035;-85
2021/12/22 06:49:10;;;;;;;30.80;16.08;;;;;;;-7.22;100.00;102398.44;5104457;28;20463;-88
2021/12/22 06:51:37;;;;;;;30.75;15.93;;;;;;;-7.21;100.00;102407.09;5101998;28;20035;-85
2021/12/22 06:54:03;;;;;;;29.77;16.30;;;;;;;-7.25;100.00;102400.00;5105315;28;20088;-84
2021/12/22 06:56:29;;;;;;;35.25;16.67;;;;;;;-7.25;100.00;102410.34;5104132;28;20115;-84
2021/12/22 06:58:56;;;;;;;27.00;14.43;;;;;;;-7.25;100.00;102413.81;5094990;28;20099;-84
2021/12/22 07:01:22;;;;;;;29.27;16.52;;;;;;;-7.28;100.00;102416.25;5097138;28;20023;-84
2021/12/22 07:03:48;;;;;;;31.33;15.80;;;;;;;-7.28;100.00;102416.25;5104091;28;20515;-84
2021/12/22 07:06:13;;;;;;;29.27;16.25;;;;;;;-7.38;100.00;102409.75;5095840;28;20027;-86
2021/12/22 07:08:39;;;;;;;36.53;17.77;;;;;;;-7.32;100.00;102417.78;5091033;28;20059;-85
2021/12/22 07:11:04;;;;;;;27.58;14.63;;;;;;;-7.36;100.00;102404.66;5094032;28;20528;-85
2021/12/22 07:13:30;;;;;;;31.23;15.75;;;;;;;-7.36;100.00;102410.69;5095125;28;20024;-85
2021/12/22 07:15:56;;;;;;;26.60;14.75;;;;;;;-7.38;100.00;102396.84;5100721;28;20127;-85
2021/12/22 07:18:21;;;;;;;34.83;17.15;;;;;;;-7.40;100.00;102397.56;5097474;28;20103;-84
2021/12/22 07:20:46;;;;;;;31.45;17.33;;;;;;;-7.42;100.00;102384.56;5106832;28;20028;-85
2021/12/22 07:23:12;;;;;;;31.75;15.23;;;;;;;-7.40;100.00;102403.63;5100050;28;20422;-84
2021/12/22 07:25:38;;;;;;;31.20;16.25;;;;;;;-7.42;100.00;102404.38;5099380;28;20030;-85
2021/12/22 07:28:04;;;;;;;28.58;15.65;;;;;;;-7.43;100.00;102398.31;5095221;28;20024;-85
2021/12/22 07:30:29;;;;;;;37.03;17.02;;;;;;;-7.43;100.00;102408.66;5101146;28;20114;-86
2021/12/22 07:32:54;;;;;;;28.10;15.48;;;;;;;-7.55;100.00;102375.34;5111469;28;20516;-85
2021/12/22 07:35:42;;;;;;;30.13;16.33;;;;;;;-7.40;100.00;102401.03;5106722;28;20026;-86
2021/12/22 07:38:32;;;;;;;32.10;16.05;;;;;;;-7.42;100.00;102413.03;5109436;28;20031;-86
2021/12/22 07:40:59;;;;;;;29.58;16.25;;;;;;;-7.38;100.00;102408.88;5091943;28;20120;-86
2021/12/22 07:43:25;;;;;;;31.80;15.55;;;;;;;-7.36;100.00;102407.25;5077738;28;20075;-85
2021/12/22 07:45:51;;;;;;;32.83;16.55;;;;;;;-7.35;100.00;102403.88;5102267;28;20027;-86
2021/12/22 07:48:16;;;;;;;34.10;16.92;;;;;;;-7.39;100.00;102394.19;5109247;28;20096;-86
2021/12/22 07:50:42;;;;;;;33.20;16.58;;;;;;;-7.35;100.00;102398.69;5092144;28;20480;-87
2021/12/22 07:53:07;;;;;;;30.02;16.15;;;;;;;-7.40;100.00;102405.31;5079166;28;20537;-85
2021/12/22 07:55:33;;;;;;;35.22;17.00;;;;;;;-7.34;100.00;102408.22;5102802;28;20058;-86
2021/12/22 07:57:58;;;;;;;30.55;16.13;;;;;;;-7.42;100.00;102400.09;5091518;28;20023;-87
2021/12/22 08:00:24;;;;;;;34.55;16.67;;;;;;;-7.28;100.00;102395.56;5103697;28;20397;-86
2021/12/22 08:02:49;;;;;;;28.50;16.50;;;;;;;-7.24;100.00;102401.75;5097908;28;20151;-86
2021/12/22 08:05:15;;;;;;;28.75;15.63;;;;;;;-7.27;100.00;102394.75;5086257;28;20297;-86
2021/12/22 08:07:40;;;;;;;34.72;16.50;;;;;;;-7.33;100.00;102381.53;5092053;28;20020;-87
2021/12/22 08:10:07;;;;;;;27.38;17.08;;;;;;;-7.22;100.00;102395.84;5111204;28;20348;-86
2021/12/22 08:12:33;;;;;;;33.60;17.10;;;;;;;-7.18;100.00;102400.34;5109686;28;20024;-87
2021/12/22 08:14:59;;;;;;;34.75;17.52;;;;;;;-7.11;100.00;102401.50;5097719;28;20125;-87
2021/12/22 08:17:29;;;;;;;32.72;17.63;;;;;;;-7.07;100.00;102406.88;5099916;28;20628;-87
2021/12/22 08:19:54;;;;;;;34.58;16.90;;;;;;;-6.97;100.00;102404.75;5113607;28;20028;-86
2021/12/22 08:22:20;;;;;;;32.38;16.67;;;;;;;-6.91;100.00;102403.28;5095377;28;20156;-86
2021/12/22 08:24:45;;;;;;;30.33;16.88;;;;;;;-6.95;100.00;102375.50;5105835;28;21797;-87
2021/12/22 08:27:11;;;;;;;30.25;16.63;;;;;;;-6.85;100.00;102379.41;5090426;28;20027;-88
2021/12/22 08:29:42;;;;;;;40.25;17.35;;;;;;;-6.72;100.00;102389.50;5094893;28;20063;-86
2021/12/22 08:32:08;;;;;;;33.17;16.42;;;;;;;-6.63;100.00;102394.19;5089540;28;20362;-86
2021/12/22 08:34:37;;;;;;;29.85;17.05;;;;;;;-6.66;100.00;102368.16;5095676;28;20209;-87
2021/12/22 08:39:48;;;;;;;33.28;16.90;;;;;;;-6.43;100.00;102387.28;5090584;28;20561;-87
2021/12/22 08:42:13;;;;;;;32.88;16.65;;;;;;;-6.43;100.00;102374.34;5092995;28;20036;-87
2021/12/22 08:44:38;;;;;;;33.17;17.73;;;;;;;-6.32;100.00;102380.84;5099463;28;20031;-87
2021/12/22 08:47:04;;;;;;;35.13;17.70;;;;;;;-6.23;100.00;102391.59;5107328;28;20032;-90
2021/12/22 08:49:29;;;;;;;32.70;17.13;;;;;;;-6.20;100.00;102388.25;5110237;28;20076;-89
2021/12/22 08:51:55;;;;;;;33.05;17.17;;;;;;;-6.12;100.00;102379.97;5108963;28;20120;-88
2021/12/22 08:54:20;;;;;;;33.92;18.27;;;;;;;-6.09;100.00;102384.41;5107180;28;20316;-88
2021/12/22 08:56:46;;;;;;;32.80;18.30;;;;;;;-6.05;100.00;102384.59;5089684;28;20059;-88
2021/12/22 08:59:13;;;;;;;31.67;17.65;;;;;;;-6.01;100.00;102375.25;5090093;28;20037;-88
2021/12/22 09:01:39;;;;;;;30.00;17.83;;;;;;;-5.90;100.00;102386.88;5110438;28;20028;-87
2021/12/22 09:04:04;;;;;;;35.53;18.55;;;;;;;-5.87;100.00;102387.03;5097773;28;20035;-88
2021/12/22 09:06:30;;;;;;;35.42;18.08;;;;;;;-5.83;100.00;102390.63;5086754;28;20036;-87
2021/12/22 09:08:55;;;;;;;32.10;17.75;;;;;;;-5.86;100.00;102380.13;5091402;28;20077;-88
2021/12/22 09:11:21;;;;;;;33.83;18.00;;;;;;;-5.72;100.00;102396.25;5090230;28;20421;-89
2021/12/22 09:13:47;;;;;;;30.88;17.10;;;;;;;-5.66;100.00;102388.72;5109670;28;20034;-89
2021/12/22 09:16:12;;;;;;;28.65;16.90;;;;;;;-5.63;100.00;102383.66;5100936;27;20032;-89
2021/12/22 09:18:38;;;;;;;31.35;17.67;;;;;;;-5.56;100.00;102393.44;5104219;28;20092;-88
2021/12/22 09:21:05;;;;;;;37.22;17.55;;;;;;;-5.48;100.00;102389.44;5099313;27;20039;-88
2021/12/22 09:23:31;;;;;;;34.50;18.85;;;;;;;-5.40;100.00;102388.03;5103645;28;20500;-88
2021/12/22 09:25:56;;;;;;;32.33;17.98;;;;;;;-5.38;100.00;102378.59;5103605;28;20032;-89
2021/12/22 09:28:21;;;;;;;33.63;17.33;;;;;;;-5.31;100.00;102380.63;5104606;28;20274;-89
2021/12/22 09:30:47;;;;;;;32.10;16.75;;;;;;;-5.23;100.00;102378.28;5106100;28;20123;-88
2021/12/22 09:33:16;;;;;;;28.80;17.27;;;;;;;-5.17;100.00;102382.84;5103500;28;20019;-87
2021/12/22 09:35:43;;;;;;;29.33;16.85;;;;;;;-5.12;100.00;102384.78;5094413;28;20523;-89
2021/12/22 09:38:09;;;;;;;33.80;18.42;;;;;;;-5.07;100.00;102393.63;5104485;28;20032;-89
2021/12/22 09:40:35;;;;;;;31.20;18.63;;;;;;;-5.00;100.00;102381.78;5105838;28;20027;-88
2021/12/22 09:43:01;;;;;;;36.40;18.15;;;;;;;-4.92;100.00;102366.47;5088101;28;20290;-90
2021/12/22 09:45:27;;;;;;;33.70;19.27;;;;;;;-4.85;100.00;102356.38;5095751;28;20042;-89
2021/12/22 09:48:26;;;;;;;31.40;18.20;;;;;;;-4.65;100.00;102375.25;5102791;28;20035;-88
2021/12/22 09:53:28;;;;;;;34.08;18.95;;;;;;;-4.41;100.00;102370.03;5105463;28;20672;-88
2021/12/22 09:55:56;;;;;;;34.05;18.35;;;;;;;-4.32;100.00;102367.75;5085977;28;20544;-87
2021/12/22 09:58:22;;;;;;;30.15;17.75;;;;;;;-4.22;100.00;102371.56;5105281;28;20320;-90
2021/12/22 10:00:49;;;;;;;32.92;19.30;;;;;;;-4.13;100.00;102366.69;5104727;28;20459;-88
2021/12/22 10:03:15;;;;;;;32.63;18.77;;;;;;;-4.11;100.00;102353.72;5086436;28;20297;-87
2021/12/22 10:05:43;;;;;;;28.55;17.70;;;;;;;-3.98;100.00;102363.69;5095644;28;20661;-88
2021/12/22 10:08:12;;;;;;;31.95;17.77;;;;;;;-3.92;100.00;102363.03;5095863;28;20036;-89
2021/12/22 10:10:44;;;;;;;31.50;18.60;;;;;;;-3.87;100.00;102364.94;5085681;28;20067;-87
2021/12/22 10:13:14;;;;;;;30.95;18.52;;;;;;;-3.76;100.00;102368.78;5087947;28;20036;-88
2021/12/22 10:15:41;;;;;;;26.30;16.85;;;;;;;-3.65;100.00;102365.63;5083755;28;20036;-89
2021/12/22 10:18:12;;;;;;;30.85;18.40;;;;;;;-3.59;100.00;102348.47;5097032;28;20032;-85
2021/12/22 10:20:39;;;;;;;29.88;17.58;;;;;;;-3.49;100.00;102352.25;5098579;28;20039;-83
2021/12/22 10:23:24;;;;;;;28.65;17.00;;;;;;;-3.37;100.00;102352.63;5104572;28;20055;-82
2021/12/22 10:26:02;;;;;;;31.25;17.75;;;;;;;-3.31;100.00;102352.78;5095834;28;20078;-85
2021/12/22 10:28:30;;;;;;;30.33;17.75;;;;;;;-3.20;100.00;102345.31;5095231;28;20252;-90
2021/12/22 10:30:58;;;;;;;32.10;17.35;;;;;;;-3.20;100.00;102342.72;5086731;28;20036;-88
2021/12/22 10:33:26;;;;;;;24.23;15.93;;;;;;;-3.21;100.00;102347.88;5087666;28;20111;-90
2021/12/22 10:35:55;;;;;;;29.30;16.52;;;;;;;-3.29;100.00;102340.72;5091242;28;20024;-87
2021/12/22 10:38:24;;;;;;;23.98;16.23;;;;;;;-3.35;100.00;102337.91;5105717;28;20035;-89
2021/12/22 10:41:00;;;;;;;28.05;16.05;;;;;;;-3.35;100.00;102347.44;5089887;28;20020;-89
2021/12/22 10:43:28;;;;;;;27.70;16.25;;;;;;;-3.34;100.00;102346.63;5104258;28;20118;-88
2021/12/22 10:45:57;;;;;;;30.25;16.63;;;;;;;-3.31;100.00;102336.28;5092111;28;20036;-88
2021/12/22 10:51:19;;;;;;;23.63;14.70;;;;;;;-3.32;100.00;102311.09;5098249;28;20391;-88
2021/12/22 10:53:46;;;;;;;28.55;16.00;;;;;;;-3.18;99.71;102314.09;5088847;28;20029;-92
2021/12/22 10:56:32;;;;;;;23.38;15.90;;;;;;;-3.10;99.75;102321.28;5079992;28;20024;-90
2021/12/22 10:59:06;;;;;;;25.70;16.17;;;;;;;-3.06;99.46;102309.25;5087843;28;20051;-91
2021/12/22 11:01:34;;;;;;;25.17;15.35;;;;;;;-3.06;99.30;102304.91;5097433;28;20035;-92
2021/12/22 11:04:04;;;;;;;25.02;14.27;;;;;;;-3.03;98.97;102307.59;5070051;28;20469;-89
2021/12/22 11:06:31;;;;;;;23.15;14.10;;;;;;;-3.02;99.21;102303.28;5093577;28;20034;-88
2021/12/22 11:09:13;;;;;;;24.00;14.93;;;;;;;-3.02;98.75;102298.94;5106925;28;20159;-91
2021/12/22 11:11:52;;;;;;;22.38;14.10;;;;;;;-3.05;99.34;102290.19;5089653;28;20460;-92
2021/12/22 11:14:22;;;;;;;22.17;13.82;;;;;;;-3.06;99.30;102278.84;5089192;28;20028;-89
2021/12/22 11:17:09;;;;;;;25.02;15.25;;;;;;;-3.03;99.39;102283.28;5087724;28;20075;-90
2021/12/22 11:19:47;;;;;;;24.42;15.57;;;;;;;-2.89;99.63;102294.97;5087413;28;20050;-89